sensor_id;sensor_type;location;lat;lon;timestamp;P1;durP1;ratioP1;P2;durP2;ratioP2
9330;SDS011;4704;50.470;12.072;2023-08-12T00:01:29;2.50;;;2.30;;
9330;SDS011;4704;50.470;12.072;2023-08-12T00:03:56;2.58;;;2.33;;
9330;SDS011;4704;50.470;12.072;2023-08-12T00:06:25;2.67;;;2.47;;
9330;SDS011;4704;50.470;12.072;2023-08-12T00:08:53;2.70;;;2.47;;
9330;SDS011;4704;50.470;12.072;2023-08-12T00:11:21;2.78;;;2.58;;
9330;SDS011;4704;50.470;12.072;2023-08-12T00:13:48;2.63;;;2.42;;
9330;SDS011;4704;50.470;12.072;2023-08-12T00:16:16;2.88;;;2.42;;
9330;SDS011;4704;50.470;12.072;2023-08-12T00:18:44;2.70;;;2.30;;
9330;SDS011;4704;50.470;12.072;2023-08-12T00:21:11;2.75;;;2.55;;
9330;SDS011;4704;50.470;12.072;2023-08-12T00:23:40;3.05;;;2.85;;
9330;SDS011;4704;50.470;12.072;2023-08-12T00:26:09;3.65;;;2.72;;
9330;SDS011;4704;50.470;12.072;2023-08-12T00:28:37;2.60;;;2.40;;
9330;SDS011;4704;50.470;12.072;2023-08-12T00:31:04;2.95;;;2.60;;
9330;SDS011;4704;50.470;12.072;2023-08-12T00:33:32;2.60;;;2.40;;
9330;SDS011;4704;50.470;12.072;2023-08-12T00:35:59;2.55;;;2.35;;
9330;SDS011;4704;50.470;12.072;2023-08-12T00:38:27;2.53;;;2.33;;
9330;SDS011;4704;50.470;12.072;2023-08-12T00:40:56;2.60;;;2.40;;
9330;SDS011;4704;50.470;12.072;2023-08-12T00:43:24;3.20;;;2.63;;
9330;SDS011;4704;50.470;12.072;2023-08-12T00:45:52;3.03;;;2.80;;
9330;SDS011;4704;50.470;12.072;2023-08-12T00:48:19;3.20;;;2.65;;
9330;SDS011;4704;50.470;12.072;2023-08-12T00:50:48;4.75;;;2.90;;
9330;SDS011;4704;50.470;12.072;2023-08-12T00:53:16;3.08;;;2.78;;
9330;SDS011;4704;50.470;12.072;2023-08-12T00:55:44;3.65;;;2.67;;
9330;SDS011;4704;50.470;12.072;2023-08-12T00:58:12;2.63;;;2.42;;
9330;SDS011;4704;50.470;12.072;2023-08-12T01:00:40;4.28;;;2.88;;
9330;SDS011;4704;50.470;12.072;2023-08-12T01:03:08;4.70;;;2.90;;
9330;SDS011;4704;50.470;12.072;2023-08-12T01:05:35;3.08;;;2.67;;
9330;SDS011;4704;50.470;12.072;2023-08-12T01:08:03;2.90;;;2.70;;
9330;SDS011;4704;50.470;12.072;2023-08-12T01:10:32;2.60;;;2.40;;
9330;SDS011;4704;50.470;12.072;2023-08-12T01:13:03;4.10;;;2.90;;
9330;SDS011;4704;50.470;12.072;2023-08-12T01:15:36;2.85;;;2.65;;
9330;SDS011;4704;50.470;12.072;2023-08-12T01:18:04;2.90;;;2.67;;
9330;SDS011;4704;50.470;12.072;2023-08-12T01:20:32;3.03;;;2.75;;
9330;SDS011;4704;50.470;12.072;2023-08-12T01:23:07;3.95;;;2.88;;
9330;SDS011;4704;50.470;12.072;2023-08-12T01:25:35;3.95;;;2.88;;
9330;SDS011;4704;50.470;12.072;2023-08-12T01:28:03;3.15;;;2.85;;
9330;SDS011;4704;50.470;12.072;2023-08-12T01:30:31;2.72;;;2.53;;
9330;SDS011;4704;50.470;12.072;2023-08-12T01:33:01;3.65;;;2.90;;
9330;SDS011;4704;50.470;12.072;2023-08-12T01:35:33;2.80;;;2.60;;
9330;SDS011;4704;50.470;12.072;2023-08-12T01:38:02;3.10;;;2.90;;
9330;SDS011;4704;50.470;12.072;2023-08-12T01:40:32;2.83;;;2.58;;
9330;SDS011;4704;50.470;12.072;2023-08-12T01:43:00;4.15;;;2.70;;
9330;SDS011;4704;50.470;12.072;2023-08-12T01:45:30;4.25;;;2.60;;
9330;SDS011;4704;50.470;12.072;2023-08-12T01:47:58;3.25;;;2.95;;
9330;SDS011;4704;50.470;12.072;2023-08-12T01:50:25;3.00;;;2.80;;
9330;SDS011;4704;50.470;12.072;2023-08-12T01:52:53;3.03;;;2.83;;
9330;SDS011;4704;50.470;12.072;2023-08-12T01:55:20;3.40;;;3.00;;
9330;SDS011;4704;50.470;12.072;2023-08-12T01:57:49;2.97;;;2.75;;
9330;SDS011;4704;50.470;12.072;2023-08-12T02:00:16;3.10;;;2.80;;
9330;SDS011;4704;50.470;12.072;2023-08-12T02:02:44;3.63;;;3.33;;
9330;SDS011;4704;50.470;12.072;2023-08-12T02:05:12;2.90;;;2.70;;
9330;SDS011;4704;50.470;12.072;2023-08-12T02:07:40;3.13;;;2.80;;
9330;SDS011;4704;50.470;12.072;2023-08-12T02:10:08;3.08;;;2.88;;
9330;SDS011;4704;50.470;12.072;2023-08-12T02:12:35;3.22;;;2.92;;
9330;SDS011;4704;50.470;12.072;2023-08-12T02:15:04;3.00;;;2.70;;
9330;SDS011;4704;50.470;12.072;2023-08-12T02:17:32;3.10;;;2.90;;
9330;SDS011;4704;50.470;12.072;2023-08-12T02:19:59;3.30;;;3.00;;
9330;SDS011;4704;50.470;12.072;2023-08-12T02:22:29;3.10;;;2.78;;
9330;SDS011;4704;50.470;12.072;2023-08-12T02:24:56;3.05;;;2.75;;
9330;SDS011;4704;50.470;12.072;2023-08-12T02:27:25;3.50;;;2.88;;
9330;SDS011;4704;50.470;12.072;2023-08-12T02:29:52;3.20;;;2.88;;
9330;SDS011;4704;50.470;12.072;2023-08-12T02:32:21;3.38;;;2.75;;
9330;SDS011;4704;50.470;12.072;2023-08-12T02:34:49;3.20;;;2.90;;
9330;SDS011;4704;50.470;12.072;2023-08-12T02:37:16;3.00;;;2.80;;
9330;SDS011;4704;50.470;12.072;2023-08-12T02:39:43;2.92;;;2.72;;
9330;SDS011;4704;50.470;12.072;2023-08-12T02:42:11;3.53;;;3.17;;
9330;SDS011;4704;50.470;12.072;2023-08-12T02:44:38;3.30;;;2.80;;
9330;SDS011;4704;50.470;12.072;2023-08-12T02:47:06;2.78;;;2.58;;
9330;SDS011;4704;50.470;12.072;2023-08-12T02:49:35;4.30;;;2.80;;
9330;SDS011;4704;50.470;12.072;2023-08-12T02:52:02;2.85;;;2.65;;
9330;SDS011;4704;50.470;12.072;2023-08-12T02:54:30;2.78;;;2.58;;
9330;SDS011;4704;50.470;12.072;2023-08-12T02:56:57;3.35;;;2.70;;
9330;SDS011;4704;50.470;12.072;2023-08-12T02:59:25;2.95;;;2.65;;
9330;SDS011;4704;50.470;12.072;2023-08-12T03:01:52;3.05;;;2.83;;
9330;SDS011;4704;50.470;12.072;2023-08-12T03:04:20;2.97;;;2.70;;
9330;SDS011;4704;50.470;12.072;2023-08-12T03:06:49;2.95;;;2.67;;
9330;SDS011;4704;50.470;12.072;2023-08-12T03:09:16;2.97;;;2.70;;
9330;SDS011;4704;50.470;12.072;2023-08-12T03:11:45;3.22;;;2.97;;
9330;SDS011;4704;50.470;12.072;2023-08-12T03:14:13;3.20;;;2.90;;
9330;SDS011;4704;50.470;12.072;2023-08-12T03:16:40;3.30;;;3.00;;
9330;SDS011;4704;50.470;12.072;2023-08-12T03:19:08;4.55;;;3.15;;
9330;SDS011;4704;50.470;12.072;2023-08-12T03:21:35;3.40;;;3.10;;
9330;SDS011;4704;50.470;12.072;2023-08-12T03:24:05;4.20;;;3.22;;
9330;SDS011;4704;50.470;12.072;2023-08-12T03:26:32;3.25;;;2.95;;
9330;SDS011;4704;50.470;12.072;2023-08-12T03:29:00;4.05;;;2.78;;
9330;SDS011;4704;50.470;12.072;2023-08-12T03:31:27;3.17;;;2.97;;
9330;SDS011;4704;50.470;12.072;2023-08-12T03:33:54;3.65;;;3.08;;
9330;SDS011;4704;50.470;12.072;2023-08-12T03:36:22;3.35;;;3.05;;
9330;SDS011;4704;50.470;12.072;2023-08-12T03:38:49;3.45;;;3.15;;
9330;SDS011;4704;50.470;12.072;2023-08-12T03:41:18;3.88;;;3.45;;
9330;SDS011;4704;50.470;12.072;2023-08-12T03:43:45;4.63;;;3.25;;
9330;SDS011;4704;50.470;12.072;2023-08-12T03:46:13;3.58;;;3.38;;
9330;SDS011;4704;50.470;12.072;2023-08-12T03:48:40;3.50;;;3.20;;
9330;SDS011;4704;50.470;12.072;2023-08-12T03:51:08;4.85;;;3.30;;
9330;SDS011;4704;50.470;12.072;2023-08-12T03:53:35;4.90;;;3.35;;
9330;SDS011;4704;50.470;12.072;2023-08-12T03:56:03;4.15;;;3.63;;
9330;SDS011;4704;50.470;12.072;2023-08-12T03:58:31;3.47;;;3.17;;
9330;SDS011;4704;50.470;12.072;2023-08-12T04:00:59;3.30;;;2.97;;
9330;SDS011;4704;50.470;12.072;2023-08-12T04:03:26;3.40;;;2.90;;
9330;SDS011;4704;50.470;12.072;2023-08-12T04:05:54;5.30;;;3.47;;
9330;SDS011;4704;50.470;12.072;2023-08-12T04:08:22;3.38;;;3.10;;
9330;SDS011;4704;50.470;12.072;2023-08-12T04:10:49;3.72;;;3.05;;
9330;SDS011;4704;50.470;12.072;2023-08-12T04:13:17;4.25;;;3.22;;
9330;SDS011;4704;50.470;12.072;2023-08-12T04:15:49;3.40;;;3.10;;
9330;SDS011;4704;50.470;12.072;2023-08-12T04:18:18;3.22;;;2.92;;
9330;SDS011;4704;50.470;12.072;2023-08-12T04:20:45;2.92;;;2.72;;
9330;SDS011;4704;50.470;12.072;2023-08-12T04:23:13;3.40;;;3.10;;
9330;SDS011;4704;50.470;12.072;2023-08-12T04:25:42;3.50;;;3.20;;
9330;SDS011;4704;50.470;12.072;2023-08-12T04:28:10;3.40;;;3.20;;
9330;SDS011;4704;50.470;12.072;2023-08-12T04:30:40;3.78;;;2.58;;
9330;SDS011;4704;50.470;12.072;2023-08-12T04:33:09;3.28;;;3.05;;
9330;SDS011;4704;50.470;12.072;2023-08-12T04:35:36;2.92;;;2.70;;
9330;SDS011;4704;50.470;12.072;2023-08-12T04:38:04;3.25;;;3.00;;
9330;SDS011;4704;50.470;12.072;2023-08-12T04:40:31;2.90;;;2.70;;
9330;SDS011;4704;50.470;12.072;2023-08-12T04:42:59;4.03;;;2.83;;
9330;SDS011;4704;50.470;12.072;2023-08-12T04:45:27;4.20;;;2.97;;
9330;SDS011;4704;50.470;12.072;2023-08-12T04:47:55;3.10;;;2.90;;
9330;SDS011;4704;50.470;12.072;2023-08-12T04:50:24;3.25;;;2.95;;
9330;SDS011;4704;50.470;12.072;2023-08-12T04:52:52;3.13;;;2.92;;
9330;SDS011;4704;50.470;12.072;2023-08-12T04:55:19;3.38;;;3.08;;
9330;SDS011;4704;50.470;12.072;2023-08-12T04:57:47;3.50;;;3.20;;
9330;SDS011;4704;50.470;12.072;2023-08-12T05:00:14;3.40;;;3.10;;
9330;SDS011;4704;50.470;12.072;2023-08-12T05:02:42;3.45;;;3.20;;
9330;SDS011;4704;50.470;12.072;2023-08-12T05:05:10;4.30;;;3.20;;
9330;SDS011;4704;50.470;12.072;2023-08-12T05:07:39;4.38;;;3.30;;
9330;SDS011;4704;50.470;12.072;2023-08-12T05:10:06;3.50;;;3.20;;
9330;SDS011;4704;50.470;12.072;2023-08-12T05:12:34;3.90;;;3.50;;
9330;SDS011;4704;50.470;12.072;2023-08-12T05:15:01;3.80;;;3.30;;
9330;SDS011;4704;50.470;12.072;2023-08-12T05:17:29;4.60;;;3.58;;
9330;SDS011;4704;50.470;12.072;2023-08-12T05:19:56;3.85;;;3.42;;
9330;SDS011;4704;50.470;12.072;2023-08-12T05:22:24;3.40;;;3.20;;
9330;SDS011;4704;50.470;12.072;2023-08-12T05:24:52;3.45;;;3.15;;
9330;SDS011;4704;50.470;12.072;2023-08-12T05:27:20;3.75;;;3.45;;
9330;SDS011;4704;50.470;12.072;2023-08-12T05:29:47;3.92;;;3.25;;
9330;SDS011;4704;50.470;12.072;2023-08-12T05:32:14;3.85;;;3.53;;
9330;SDS011;4704;50.470;12.072;2023-08-12T05:34:42;4.88;;;3.80;;
9330;SDS011;4704;50.470;12.072;2023-08-12T05:37:10;4.05;;;3.70;;
9330;SDS011;4704;50.470;12.072;2023-08-12T05:39:37;3.92;;;3.63;;
9330;SDS011;4704;50.470;12.072;2023-08-12T05:42:06;4.63;;;3.60;;
9330;SDS011;4704;50.470;12.072;2023-08-12T05:44:34;3.85;;;3.50;;
9330;SDS011;4704;50.470;12.072;2023-08-12T05:47:01;3.95;;;3.65;;
9330;SDS011;4704;50.470;12.072;2023-08-12T05:49:28;4.38;;;4.03;;
9330;SDS011;4704;50.470;12.072;2023-08-12T05:51:56;4.00;;;3.70;;
9330;SDS011;4704;50.470;12.072;2023-08-12T05:54:23;4.07;;;3.78;;
9330;SDS011;4704;50.470;12.072;2023-08-12T05:56:51;4.28;;;3.50;;
9330;SDS011;4704;50.470;12.072;2023-08-12T05:59:20;3.95;;;3.65;;
9330;SDS011;4704;50.470;12.072;2023-08-12T06:01:47;4.10;;;3.80;;
9330;SDS011;4704;50.470;12.072;2023-08-12T06:04:15;4.45;;;4.05;;
9330;SDS011;4704;50.470;12.072;2023-08-12T06:06:42;4.03;;;3.72;;
9330;SDS011;4704;50.470;12.072;2023-08-12T06:09:09;3.85;;;3.35;;
9330;SDS011;4704;50.470;12.072;2023-08-12T06:11:37;4.45;;;3.80;;
9330;SDS011;4704;50.470;12.072;2023-08-12T06:14:04;4.10;;;3.72;;
9330;SDS011;4704;50.470;12.072;2023-08-12T06:16:33;4.10;;;3.80;;
9330;SDS011;4704;50.470;12.072;2023-08-12T06:19:00;3.85;;;3.63;;
9330;SDS011;4704;50.470;12.072;2023-08-12T06:21:28;4.47;;;3.90;;
9330;SDS011;4704;50.470;12.072;2023-08-12T06:23:55;4.35;;;4.00;;
9330;SDS011;4704;50.470;12.072;2023-08-12T06:26:23;4.47;;;4.10;;
9330;SDS011;4704;50.470;12.072;2023-08-12T06:28:50;4.30;;;4.00;;
9330;SDS011;4704;50.470;12.072;2023-08-12T06:31:17;4.45;;;4.15;;
9330;SDS011;4704;50.470;12.072;2023-08-12T06:33:46;4.70;;;4.30;;
9330;SDS011;4704;50.470;12.072;2023-08-12T06:36:14;4.57;;;4.20;;
9330;SDS011;4704;50.470;12.072;2023-08-12T06:38:41;4.38;;;3.70;;
9330;SDS011;4704;50.470;12.072;2023-08-12T06:41:09;4.40;;;4.00;;
9330;SDS011;4704;50.470;12.072;2023-08-12T06:43:36;4.35;;;3.78;;
9330;SDS011;4704;50.470;12.072;2023-08-12T06:46:03;3.75;;;3.45;;
9330;SDS011;4704;50.470;12.072;2023-08-12T06:48:31;3.90;;;3.50;;
9330;SDS011;4704;50.470;12.072;2023-08-12T06:51:00;3.83;;;3.45;;
9330;SDS011;4704;50.470;12.072;2023-08-12T06:53:35;3.83;;;3.53;;
9330;SDS011;4704;50.470;12.072;2023-08-12T06:56:02;4.05;;;3.70;;
9330;SDS011;4704;50.470;12.072;2023-08-12T06:58:30;3.85;;;3.55;;
9330;SDS011;4704;50.470;12.072;2023-08-12T07:00:58;3.92;;;3.63;;
9330;SDS011;4704;50.470;12.072;2023-08-12T07:03:25;3.95;;;3.65;;
9330;SDS011;4704;50.470;12.072;2023-08-12T07:05:53;3.80;;;3.50;;
9330;SDS011;4704;50.470;12.072;2023-08-12T07:08:22;3.65;;;3.35;;
9330;SDS011;4704;50.470;12.072;2023-08-12T07:10:49;4.00;;;3.70;;
9330;SDS011;4704;50.470;12.072;2023-08-12T07:13:16;3.80;;;3.50;;
9330;SDS011;4704;50.470;12.072;2023-08-12T07:15:44;3.50;;;3.20;;
9330;SDS011;4704;50.470;12.072;2023-08-12T07:18:11;4.40;;;4.03;;
9330;SDS011;4704;50.470;12.072;2023-08-12T07:20:38;4.00;;;3.60;;
9330;SDS011;4704;50.470;12.072;2023-08-12T07:23:06;3.78;;;3.47;;
9330;SDS011;4704;50.470;12.072;2023-08-12T07:25:35;3.80;;;3.50;;
9330;SDS011;4704;50.470;12.072;2023-08-12T07:28:02;3.63;;;3.33;;
9330;SDS011;4704;50.470;12.072;2023-08-12T07:30:30;4.00;;;3.40;;
9330;SDS011;4704;50.470;12.072;2023-08-12T07:32:58;3.55;;;3.17;;
9330;SDS011;4704;50.470;12.072;2023-08-12T07:35:25;3.53;;;3.33;;
9330;SDS011;4704;50.470;12.072;2023-08-12T07:37:52;4.82;;;3.40;;
9330;SDS011;4704;50.470;12.072;2023-08-12T07:40:20;4.00;;;3.60;;
9330;SDS011;4704;50.470;12.072;2023-08-12T07:42:49;3.80;;;3.50;;
9330;SDS011;4704;50.470;12.072;2023-08-12T07:45:16;3.53;;;3.22;;
9330;SDS011;4704;50.470;12.072;2023-08-12T07:47:44;3.80;;;3.50;;
9330;SDS011;4704;50.470;12.072;2023-08-12T07:50:11;3.65;;;3.33;;
9330;SDS011;4704;50.470;12.072;2023-08-12T07:52:39;3.70;;;3.42;;
9330;SDS011;4704;50.470;12.072;2023-08-12T07:55:06;3.88;;;3.55;;
9330;SDS011;4704;50.470;12.072;2023-08-12T07:57:34;3.85;;;3.55;;
9330;SDS011;4704;50.470;12.072;2023-08-12T08:00:03;3.92;;;3.55;;
9330;SDS011;4704;50.470;12.072;2023-08-12T08:02:33;3.67;;;3.38;;
9330;SDS011;4704;50.470;12.072;2023-08-12T08:05:00;3.63;;;3.33;;
9330;SDS011;4704;50.470;12.072;2023-08-12T08:07:27;3.60;;;3.30;;
9330;SDS011;4704;50.470;12.072;2023-08-12T08:09:55;4.38;;;3.13;;
9330;SDS011;4704;50.470;12.072;2023-08-12T08:12:22;3.70;;;3.28;;
9330;SDS011;4704;50.470;12.072;2023-08-12T08:14:50;3.53;;;3.25;;
9330;SDS011;4704;50.470;12.072;2023-08-12T08:17:19;3.00;;;2.80;;
9330;SDS011;4704;50.470;12.072;2023-08-12T08:19:46;3.42;;;3.22;;
9330;SDS011;4704;50.470;12.072;2023-08-12T08:22:14;3.42;;;3.13;;
9330;SDS011;4704;50.470;12.072;2023-08-12T08:24:41;3.00;;;2.80;;
9330;SDS011;4704;50.470;12.072;2023-08-12T08:27:08;3.42;;;3.17;;
9330;SDS011;4704;50.470;12.072;2023-08-12T08:29:36;2.97;;;2.78;;
9330;SDS011;4704;50.470;12.072;2023-08-12T08:32:04;3.08;;;2.80;;
9330;SDS011;4704;50.470;12.072;2023-08-12T08:34:33;3.40;;;3.17;;
9330;SDS011;4704;50.470;12.072;2023-08-12T08:37:00;4.25;;;2.90;;
9330;SDS011;4704;50.470;12.072;2023-08-12T08:39:28;3.42;;;3.13;;
9330;SDS011;4704;50.470;12.072;2023-08-12T08:41:55;4.25;;;2.83;;
9330;SDS011;4704;50.470;12.072;2023-08-12T08:44:23;3.60;;;2.83;;
9330;SDS011;4704;50.470;12.072;2023-08-12T08:46:51;3.20;;;3.00;;
9330;SDS011;4704;50.470;12.072;2023-08-12T08:49:19;3.50;;;3.17;;
9330;SDS011;4704;50.470;12.072;2023-08-12T08:51:48;3.10;;;2.90;;
9330;SDS011;4704;50.470;12.072;2023-08-12T08:54:16;3.05;;;2.85;;
9330;SDS011;4704;50.470;12.072;2023-08-12T08:56:44;3.30;;;3.10;;
9330;SDS011;4704;50.470;12.072;2023-08-12T08:59:12;3.25;;;3.03;;
9330;SDS011;4704;50.470;12.072;2023-08-12T09:01:40;2.78;;;2.58;;
9330;SDS011;4704;50.470;12.072;2023-08-12T09:04:07;3.05;;;2.85;;
9330;SDS011;4704;50.470;12.072;2023-08-12T09:06:36;3.00;;;2.80;;
9330;SDS011;4704;50.470;12.072;2023-08-12T09:09:05;3.60;;;3.30;;
9330;SDS011;4704;50.470;12.072;2023-08-12T09:11:35;3.33;;;3.10;;
9330;SDS011;4704;50.470;12.072;2023-08-12T09:14:05;3.13;;;2.90;;
9330;SDS011;4704;50.470;12.072;2023-08-12T09:16:33;3.38;;;3.13;;
9330;SDS011;4704;50.470;12.072;2023-08-12T09:19:01;3.30;;;3.10;;
9330;SDS011;4704;50.470;12.072;2023-08-12T09:21:28;3.20;;;3.00;;
9330;SDS011;4704;50.470;12.072;2023-08-12T09:23:56;3.35;;;3.10;;
9330;SDS011;4704;50.470;12.072;2023-08-12T09:26:25;3.28;;;2.97;;
9330;SDS011;4704;50.470;12.072;2023-08-12T09:28:52;3.03;;;2.83;;
9330;SDS011;4704;50.470;12.072;2023-08-12T09:31:23;3.05;;;2.75;;
9330;SDS011;4704;50.470;12.072;2023-08-12T09:33:50;3.53;;;3.22;;
9330;SDS011;4704;50.470;12.072;2023-08-12T09:36:18;3.40;;;3.15;;
9330;SDS011;4704;50.470;12.072;2023-08-12T09:38:46;3.25;;;2.95;;
9330;SDS011;4704;50.470;12.072;2023-08-12T09:41:13;3.80;;;3.50;;
9330;SDS011;4704;50.470;12.072;2023-08-12T09:43:42;3.45;;;3.20;;
9330;SDS011;4704;50.470;12.072;2023-08-12T09:46:10;3.50;;;3.30;;
9330;SDS011;4704;50.470;12.072;2023-08-12T09:48:39;3.40;;;3.10;;
9330;SDS011;4704;50.470;12.072;2023-08-12T09:51:07;3.63;;;3.33;;
9330;SDS011;4704;50.470;12.072;2023-08-12T09:53:35;3.45;;;3.20;;
9330;SDS011;4704;50.470;12.072;2023-08-12T09:56:05;4.40;;;3.50;;
9330;SDS011;4704;50.470;12.072;2023-08-12T09:58:33;3.13;;;2.92;;
9330;SDS011;4704;50.470;12.072;2023-08-12T10:01:04;4.00;;;3.63;;
9330;SDS011;4704;50.470;12.072;2023-08-12T10:03:33;3.67;;;3.40;;
9330;SDS011;4704;50.470;12.072;2023-08-12T10:06:00;3.10;;;2.90;;
9330;SDS011;4704;50.470;12.072;2023-08-12T10:08:28;3.50;;;3.30;;
9330;SDS011;4704;50.470;12.072;2023-08-12T10:10:55;3.10;;;2.90;;
9330;SDS011;4704;50.470;12.072;2023-08-12T10:13:23;3.20;;;3.00;;
9330;SDS011;4704;50.470;12.072;2023-08-12T10:15:50;3.53;;;3.22;;
9330;SDS011;4704;50.470;12.072;2023-08-12T10:18:19;3.22;;;3.00;;
9330;SDS011;4704;50.470;12.072;2023-08-12T10:20:47;3.67;;;3.38;;
9330;SDS011;4704;50.470;12.072;2023-08-12T10:23:17;3.50;;;3.22;;
9330;SDS011;4704;50.470;12.072;2023-08-12T10:25:45;2.85;;;2.65;;
9330;SDS011;4704;50.470;12.072;2023-08-12T10:28:12;3.63;;;3.33;;
9330;SDS011;4704;50.470;12.072;2023-08-12T10:30:40;3.50;;;3.17;;
9330;SDS011;4704;50.470;12.072;2023-08-12T10:33:08;3.40;;;3.10;;
9330;SDS011;4704;50.470;12.072;2023-08-12T10:35:46;3.28;;;3.08;;
9330;SDS011;4704;50.470;12.072;2023-08-12T10:38:16;3.30;;;3.10;;
9330;SDS011;4704;50.470;12.072;2023-08-12T10:40:44;3.40;;;2.97;;
9330;SDS011;4704;50.470;12.072;2023-08-12T10:43:11;3.05;;;2.85;;
9330;SDS011;4704;50.470;12.072;2023-08-12T10:45:43;3.25;;;2.95;;
9330;SDS011;4704;50.470;12.072;2023-08-12T10:48:15;3.08;;;2.88;;
9330;SDS011;4704;50.470;12.072;2023-08-12T10:50:43;3.10;;;2.90;;
9330;SDS011;4704;50.470;12.072;2023-08-12T10:53:23;2.88;;;2.67;;
9330;SDS011;4704;50.470;12.072;2023-08-12T10:55:54;3.10;;;2.90;;
9330;SDS011;4704;50.470;12.072;2023-08-12T10:58:29;2.70;;;2.50;;
9330;SDS011;4704;50.470;12.072;2023-08-12T11:00:57;3.28;;;2.60;;
9330;SDS011;4704;50.470;12.072;2023-08-12T11:03:25;2.80;;;2.60;;
9330;SDS011;4704;50.470;12.072;2023-08-12T11:05:53;3.00;;;2.75;;
9330;SDS011;4704;50.470;12.072;2023-08-12T11:08:26;5.40;;;2.78;;
9330;SDS011;4704;50.470;12.072;2023-08-12T11:10:55;2.70;;;2.50;;
9330;SDS011;4704;50.470;12.072;2023-08-12T11:13:23;2.65;;;2.45;;
9330;SDS011;4704;50.470;12.072;2023-08-12T11:16:04;2.80;;;2.60;;
9330;SDS011;4704;50.470;12.072;2023-08-12T11:18:32;2.63;;;2.42;;
9330;SDS011;4704;50.470;12.072;2023-08-12T11:21:00;2.60;;;2.40;;
9330;SDS011;4704;50.470;12.072;2023-08-12T11:23:29;2.45;;;2.25;;
9330;SDS011;4704;50.470;12.072;2023-08-12T11:25:56;2.47;;;2.28;;
9330;SDS011;4704;50.470;12.072;2023-08-12T11:28:24;2.30;;;2.20;;
9330;SDS011;4704;50.470;12.072;2023-08-12T11:30:52;2.65;;;2.40;;
9330;SDS011;4704;50.470;12.072;2023-08-12T11:33:20;3.15;;;2.45;;
9330;SDS011;4704;50.470;12.072;2023-08-12T11:35:47;2.22;;;2.03;;
9330;SDS011;4704;50.470;12.072;2023-08-12T11:38:15;2.50;;;2.30;;
9330;SDS011;4704;50.470;12.072;2023-08-12T11:40:44;2.13;;;1.98;;
9330;SDS011;4704;50.470;12.072;2023-08-12T11:43:12;2.42;;;2.22;;
9330;SDS011;4704;50.470;12.072;2023-08-12T11:45:41;2.22;;;2.03;;
9330;SDS011;4704;50.470;12.072;2023-08-12T11:48:09;2.13;;;2.00;;
9330;SDS011;4704;50.470;12.072;2023-08-12T11:50:36;2.22;;;2.03;;
9330;SDS011;4704;50.470;12.072;2023-08-12T11:53:04;2.40;;;2.20;;
9330;SDS011;4704;50.470;12.072;2023-08-12T11:55:31;2.20;;;2.00;;
9330;SDS011;4704;50.470;12.072;2023-08-12T11:58:02;2.20;;;2.00;;
9330;SDS011;4704;50.470;12.072;2023-08-12T12:00:29;3.22;;;2.20;;
9330;SDS011;4704;50.470;12.072;2023-08-12T12:02:57;2.25;;;2.05;;
9330;SDS011;4704;50.470;12.072;2023-08-12T12:05:26;2.17;;;2.00;;
9330;SDS011;4704;50.470;12.072;2023-08-12T12:07:54;2.72;;;2.10;;
9330;SDS011;4704;50.470;12.072;2023-08-12T12:10:25;2.95;;;2.67;;
9330;SDS011;4704;50.470;12.072;2023-08-12T12:12:54;3.45;;;2.05;;
9330;SDS011;4704;50.470;12.072;2023-08-12T12:15:23;2.38;;;2.10;;
9330;SDS011;4704;50.470;12.072;2023-08-12T12:17:51;2.22;;;2.05;;
9330;SDS011;4704;50.470;12.072;2023-08-12T12:20:18;2.60;;;2.10;;
9330;SDS011;4704;50.470;12.072;2023-08-12T12:22:46;2.65;;;2.45;;
9330;SDS011;4704;50.470;12.072;2023-08-12T12:25:15;2.15;;;2.05;;
9330;SDS011;4704;50.470;12.072;2023-08-12T12:27:45;2.22;;;2.10;;
9330;SDS011;4704;50.470;12.072;2023-08-12T12:30:13;3.45;;;2.38;;
9330;SDS011;4704;50.470;12.072;2023-08-12T12:32:42;2.30;;;2.13;;
9330;SDS011;4704;50.470;12.072;2023-08-12T12:35:10;2.63;;;2.40;;
9330;SDS011;4704;50.470;12.072;2023-08-12T12:37:38;3.22;;;2.50;;
9330;SDS011;4704;50.470;12.072;2023-08-12T12:40:06;4.63;;;2.55;;
9330;SDS011;4704;50.470;12.072;2023-08-12T12:42:35;3.15;;;2.47;;
9330;SDS011;4704;50.470;12.072;2023-08-12T12:45:04;2.63;;;2.42;;
9330;SDS011;4704;50.470;12.072;2023-08-12T12:47:31;2.20;;;2.10;;
9330;SDS011;4704;50.470;12.072;2023-08-12T12:50:00;2.58;;;2.40;;
9330;SDS011;4704;50.470;12.072;2023-08-12T12:52:28;2.50;;;2.30;;
9330;SDS011;4704;50.470;12.072;2023-08-12T12:54:55;2.40;;;2.22;;
9330;SDS011;4704;50.470;12.072;2023-08-12T12:57:24;2.50;;;2.30;;
9330;SDS011;4704;50.470;12.072;2023-08-12T12:59:51;2.72;;;2.53;;
9330;SDS011;4704;50.470;12.072;2023-08-12T13:02:19;2.78;;;2.58;;
9330;SDS011;4704;50.470;12.072;2023-08-12T13:04:46;2.63;;;2.40;;
9330;SDS011;4704;50.470;12.072;2023-08-12T13:07:16;3.10;;;2.83;;
9330;SDS011;4704;50.470;12.072;2023-08-12T13:09:43;2.90;;;2.70;;
9330;SDS011;4704;50.470;12.072;2023-08-12T13:12:11;3.45;;;2.40;;
9330;SDS011;4704;50.470;12.072;2023-08-12T13:14:38;2.85;;;2.65;;
9330;SDS011;4704;50.470;12.072;2023-08-12T13:17:06;2.90;;;2.70;;
9330;SDS011;4704;50.470;12.072;2023-08-12T13:19:33;2.75;;;2.50;;
9330;SDS011;4704;50.470;12.072;2023-08-12T13:22:01;3.10;;;2.80;;
9330;SDS011;4704;50.470;12.072;2023-08-12T13:24:30;2.90;;;2.70;;
9330;SDS011;4704;50.470;12.072;2023-08-12T13:26:58;2.70;;;2.50;;
9330;SDS011;4704;50.470;12.072;2023-08-12T13:29:26;2.80;;;2.60;;
9330;SDS011;4704;50.470;12.072;2023-08-12T13:31:55;2.75;;;2.55;;
9330;SDS011;4704;50.470;12.072;2023-08-12T13:34:22;2.80;;;2.60;;
9330;SDS011;4704;50.470;12.072;2023-08-12T13:36:50;2.60;;;2.40;;
9330;SDS011;4704;50.470;12.072;2023-08-12T13:39:17;2.88;;;2.67;;
9330;SDS011;4704;50.470;12.072;2023-08-12T13:41:47;3.00;;;2.80;;
9330;SDS011;4704;50.470;12.072;2023-08-12T13:44:14;3.00;;;2.80;;
9330;SDS011;4704;50.470;12.072;2023-08-12T13:46:42;3.08;;;2.75;;
9330;SDS011;4704;50.470;12.072;2023-08-12T13:49:09;2.90;;;2.60;;
9330;SDS011;4704;50.470;12.072;2023-08-12T13:51:37;3.60;;;3.20;;
9330;SDS011;4704;50.470;12.072;2023-08-12T13:54:04;3.45;;;3.10;;
9330;SDS011;4704;50.470;12.072;2023-08-12T13:56:32;3.28;;;2.92;;
9330;SDS011;4704;50.470;12.072;2023-08-12T13:59:01;3.22;;;3.03;;
9330;SDS011;4704;50.470;12.072;2023-08-12T14:01:29;3.35;;;3.10;;
9330;SDS011;4704;50.470;12.072;2023-08-12T14:03:56;3.80;;;3.40;;
9330;SDS011;4704;50.470;12.072;2023-08-12T14:06:24;3.60;;;3.30;;
9330;SDS011;4704;50.470;12.072;2023-08-12T14:08:51;3.60;;;3.30;;
9330;SDS011;4704;50.470;12.072;2023-08-12T14:11:18;3.45;;;3.15;;
9330;SDS011;4704;50.470;12.072;2023-08-12T14:13:46;3.90;;;3.60;;
9330;SDS011;4704;50.470;12.072;2023-08-12T14:16:15;3.40;;;3.10;;
9330;SDS011;4704;50.470;12.072;2023-08-12T14:18:42;3.67;;;3.40;;
9330;SDS011;4704;50.470;12.072;2023-08-12T14:21:10;3.25;;;3.00;;
9330;SDS011;4704;50.470;12.072;2023-08-12T14:23:38;4.50;;;3.25;;
9330;SDS011;4704;50.470;12.072;2023-08-12T14:26:05;4.10;;;3.25;;
9330;SDS011;4704;50.470;12.072;2023-08-12T14:28:32;3.10;;;2.90;;
9330;SDS011;4704;50.470;12.072;2023-08-12T14:31:00;3.30;;;2.90;;
9330;SDS011;4704;50.470;12.072;2023-08-12T14:33:29;3.10;;;2.90;;
9330;SDS011;4704;50.470;12.072;2023-08-12T14:35:57;3.42;;;3.17;;
9330;SDS011;4704;50.470;12.072;2023-08-12T14:38:24;5.88;;;3.22;;
9330;SDS011;4704;50.470;12.072;2023-08-12T14:40:52;3.35;;;2.97;;
9330;SDS011;4704;50.470;12.072;2023-08-12T14:43:19;5.07;;;2.75;;
9330;SDS011;4704;50.470;12.072;2023-08-12T14:45:47;3.42;;;1.85;;
9330;SDS011;4704;50.470;12.072;2023-08-12T14:48:14;4.95;;;1.40;;
9330;SDS011;4704;50.470;12.072;2023-08-12T14:50:44;2.85;;;1.27;;
9330;SDS011;4704;50.470;12.072;2023-08-12T14:53:12;3.53;;;1.42;;
9330;SDS011;4704;50.470;12.072;2023-08-12T14:55:39;4.25;;;1.50;;
9330;SDS011;4704;50.470;12.072;2023-08-12T14:58:07;3.90;;;1.60;;
9330;SDS011;4704;50.470;12.072;2023-08-12T15:00:34;2.92;;;1.70;;
9330;SDS011;4704;50.470;12.072;2023-08-12T15:03:02;3.35;;;1.17;;
9330;SDS011;4704;50.470;12.072;2023-08-12T15:05:29;2.97;;;1.20;;